Time;durP1;ratioP1;P1;durP2;ratioP2;P2;SDS_P1;SDS_P2;PMS_P1;PMS_P2;Temp;Humidity;BMP_temperature;BMP_pressure;BME280_temperature;BME280_humidity;BME280_pressure;Samples;Min_cycle;Max_cycle;Signal;HPM_P1;HPM_P2
2023/10/25 13:47:32;;;;;;;3.93;1.13;;;21.70;59.30;21.10;94820.00;;;;5043185;28;20223;-80
2023/10/25 13:49:59;;;;;;;1.37;0.53;;;21.70;59.60;21.10;94814.00;;;;5030184;28;20241;-79
2023/10/25 13:52:26;;;;;;;0.50;0.20;;;21.70;59.40;21.10;94809.00;;;;5022986;28;20700;-79
2023/10/25 13:54:53;;;;;;;0.20;0.20;;;21.80;59.60;21.20;94804.00;;;;5020566;28;20575;-81
2023/10/25 13:57:21;;;;;;;0.23;0.23;;;21.80;59.60;21.20;94804.00;;;;5007619;28;20654;-80
2023/10/25 13:59:48;;;;;;;0.20;0.20;;;21.80;59.50;21.30;94802.00;;;;5004617;28;20222;-81
2023/10/25 14:02:15;;;;;;;0.73;0.30;;;21.80;59.40;21.30;94800.00;;;;5020397;28;20224;-80
2023/10/25 14:04:44;;;;;;;0.63;0.20;;;21.90;59.30;21.30;94796.00;;;;5023436;28;20625;-80
2023/10/25 14:07:11;;;;;;;0.23;0.20;;;21.90;58.90;21.30;94793.00;;;;5020082;28;20201;-82
2023/10/25 14:09:38;;;;;;;0.40;0.30;;;21.90;59.10;21.30;94782.00;;;;5023556;28;20264;-80
2023/10/25 14:12:07;;;;;;;0.23;0.23;;;21.90;59.00;21.30;94777.00;;;;5009763;28;20224;-81
2023/10/25 14:14:35;;;;;;;0.73;0.20;;;21.90;59.10;21.30;94768.00;;;;5004746;28;20447;-81
2023/10/25 14:17:02;;;;;;;0.30;0.30;;;21.90;58.80;21.30;94772.00;;;;5005158;28;20217;-81
2023/10/25 14:19:29;;;;;;;0.10;0.10;;;21.90;58.70;21.30;94764.00;;;;5024996;28;20697;-82
2023/10/25 14:21:58;;;;;;;0.10;0.10;;;21.90;58.80;21.30;94759.00;;;;5004424;28;20670;-81
2023/10/25 14:24:25;;;;;;;0.30;0.17;;;21.90;58.50;21.30;94748.00;;;;5023657;28;20202;-81
2023/10/25 14:26:52;;;;;;;0.20;0.20;;;21.90;58.30;21.20;94749.00;;;;5016264;28;20256;-81
2023/10/25 14:29:21;;;;;;;0.20;0.20;;;21.90;58.20;21.20;94737.00;;;;4984441;28;20221;-81
2023/10/25 14:31:49;;;;;;;0.53;0.40;;;21.90;58.40;21.20;94732.00;;;;5019226;28;20628;-81
2023/10/25 14:34:17;;;;;;;0.10;0.10;;;21.90;58.50;21.10;94738.00;;;;5001467;28;20259;-81
2023/10/25 14:36:44;;;;;;;0.83;0.20;;;21.80;59.00;21.10;94733.00;;;;4985165;28;20687;-81
2023/10/25 14:39:14;;;;;;;0.30;0.30;;;21.80;59.20;21.10;94730.00;;;;4981839;28;20257;-79
2023/10/25 14:41:42;;;;;;;0.30;0.27;;;21.80;58.40;21.00;94738.00;;;;5021044;28;20682;-80
2023/10/25 14:44:10;;;;;;;0.20;0.20;;;21.80;58.40;21.00;94740.00;;;;5019002;28;20209;-82
2023/10/25 14:46:37;;;;;;;0.30;0.30;;;21.70;58.60;21.00;94746.00;;;;5004722;28;20213;-81
2023/10/25 14:49:04;;;;;;;0.40;0.40;;;21.70;59.00;21.00;94732.00;;;;4999897;28;20589;-81
2023/10/25 14:51:32;;;;;;;0.30;0.30;;;21.70;58.50;21.00;94728.00;;;;5021645;28;20274;-80
2023/10/25 14:53:59;;;;;;;0.20;0.20;;;21.70;58.80;21.00;94734.00;;;;5007403;28;20644;-80
2023/10/25 14:56:28;;;;;;;0.50;0.50;;;21.70;59.10;21.00;94724.00;;;;5016988;28;20606;-81
2023/10/25 14:58:56;;;;;;;0.30;0.30;;;21.70;59.00;21.00;94713.00;;;;5025652;28;20236;-81
2023/10/25 15:01:27;;;;;;;0.30;0.20;;;21.70;58.90;21.00;94718.00;;;;5037788;28;20284;-80
2023/10/25 15:03:55;;;;;;;0.40;0.30;;;21.70;58.90;21.00;94722.00;;;;5012179;28;20198;-80
2023/10/25 15:06:28;;;;;;;0.20;0.20;;;21.70;58.80;21.00;94714.00;;;;5024918;28;20615;-81
2023/10/25 15:08:57;;;;;;;0.33;0.33;;;21.70;58.80;21.00;94716.00;;;;5023597;28;20695;-81
2023/10/25 15:11:24;;;;;;;1.00;0.60;;;21.60;59.00;21.00;94726.00;;;;5025339;28;20213;-81
2023/10/25 15:13:53;;;;;;;0.30;0.30;;;21.60;59.00;20.90;94723.00;;;;4996828;28;20204;-80
2023/10/25 15:16:21;;;;;;;0.70;0.60;;;21.60;59.10;20.90;94724.00;;;;5026652;28;20189;-81
2023/10/25 15:18:49;;;;;;;0.70;0.70;;;21.60;59.20;20.90;94719.00;;;;5021713;28;20293;-81
2023/10/25 15:21:20;;;;;;;1.17;0.60;;;21.60;59.30;20.90;94717.00;;;;5018994;28;20204;-81
2023/10/25 15:23:49;;;;;;;0.60;0.60;;;21.60;59.20;20.90;94720.00;;;;5006609;28;20198;-79
2023/10/25 15:26:16;;;;;;;0.70;0.60;;;21.60;59.20;20.90;94720.00;;;;5024011;28;20197;-80
2023/10/25 15:28:44;;;;;;;0.80;0.80;;;21.60;59.40;20.80;94725.00;;;;5025344;28;20202;-81
2023/10/25 15:31:20;;;;;;;0.77;0.77;;;21.50;59.50;20.80;94724.00;;;;4994694;28;20197;-79
2023/10/25 15:33:47;;;;;;;0.87;0.87;;;21.50;59.50;20.80;94740.00;;;;5025091;28;20284;-79
2023/10/25 15:36:14;;;;;;;1.20;1.10;;;21.50;59.50;20.80;94734.00;;;;5009860;28;20202;-78
2023/10/25 15:38:41;;;;;;;1.07;0.97;;;21.50;59.40;20.70;94717.00;;;;5010070;28;20221;-78
2023/10/25 15:41:20;;;;;;;0.70;0.70;;;21.50;59.70;20.70;94713.00;;;;5023279;28;20205;-78
2023/10/25 15:43:48;;;;;;;0.97;0.60;;;21.40;59.60;20.70;94736.00;;;;5001628;28;21798;-79
2023/10/25 15:46:22;;;;;;;1.43;1.33;;;21.40;59.90;20.60;94729.00;;;;5021288;28;20208;-78
2023/10/25 15:48:52;;;;;;;1.10;1.00;;;21.40;59.90;20.60;94708.00;;;;4994038;28;20217;-79
2023/10/25 15:51:22;;;;;;;0.83;0.80;;;21.40;59.90;20.60;94707.00;;;;5007430;28;20196;-79
2023/10/25 15:53:51;;;;;;;0.60;0.60;;;21.40;60.40;20.60;94714.00;;;;5025880;28;20677;-81
2023/10/25 15:56:19;;;;;;;0.50;0.50;;;21.30;60.70;20.50;94737.00;;;;5012378;28;20209;-79
2023/10/25 15:58:47;;;;;;;0.43;0.43;;;21.30;61.00;20.50;94731.00;;;;5001077;28;20309;-79
2023/10/25 16:01:19;;;;;;;0.40;0.40;;;21.30;61.20;20.40;94727.00;;;;5011742;28;20197;-79
2023/10/25 16:03:47;;;;;;;0.70;0.70;;;21.20;61.30;20.40;94726.00;;;;5024241;28;20210;-79
2023/10/25 16:06:16;;;;;;;0.90;0.90;;;21.20;61.30;20.30;94718.00;;;;5024188;28;20265;-78
2023/10/25 16:08:43;;;;;;;1.60;1.17;;;21.20;61.10;20.30;94729.00;;;;5020911;28;20297;-83
2023/10/25 16:11:13;;;;;;;1.00;0.93;;;21.10;61.10;20.20;94749.00;;;;5018461;28;20260;-84
2023/10/25 16:13:40;;;;;;;0.70;0.70;;;21.10;61.50;20.20;94755.00;;;;5020830;28;20208;-83
2023/10/25 16:16:09;;;;;;;0.60;0.60;;;21.00;61.60;20.20;94751.00;;;;5023119;28;20646;-83
2023/10/25 16:18:38;;;;;;;0.80;0.80;;;21.00;61.80;20.10;94755.00;;;;4994980;28;20722;-84
2023/10/25 16:21:06;;;;;;;0.70;0.70;;;21.00;61.90;20.10;94750.00;;;;5024573;28;20217;-82
2023/10/25 16:23:36;;;;;;;0.80;0.80;;;20.90;62.10;20.10;94754.00;;;;5020166;28;20257;-83
2023/10/25 16:26:05;;;;;;;1.00;0.90;;;20.90;62.30;20.00;94757.00;;;;5023539;28;20634;-83
2023/10/25 16:28:34;;;;;;;1.13;1.03;;;20.90;62.70;20.00;94768.00;;;;5014108;28;20395;-83
2023/10/25 16:31:03;;;;;;;1.17;1.07;;;20.80;62.90;19.90;94774.00;;;;5022167;28;20206;-84
2023/10/25 16:33:31;;;;;;;1.23;1.17;;;20.80;63.40;19.90;94776.00;;;;5025554;28;20205;-84
2023/10/25 16:36:01;;;;;;;2.00;1.80;;;20.70;63.70;19.80;94773.00;;;;5002392;28;20213;-84
2023/10/25 16:38:29;;;;;;;2.73;2.00;;;20.70;63.70;19.80;94763.00;;;;5026584;28;20209;-84
2023/10/25 16:41:01;;;;;;;1.93;1.70;;;20.70;63.80;19.70;94772.00;;;;5008432;28;20245;-84
2023/10/25 16:43:30;;;;;;;1.73;1.47;;;20.60;64.70;19.70;94767.00;;;;5020526;28;20202;-84
2023/10/25 16:46:07;;;;;;;1.43;0.90;;;20.60;64.70;19.60;94769.00;;;;5019950;28;20300;-83
2023/10/25 16:48:38;;;;;;;0.90;0.90;;;20.50;65.10;19.60;94767.00;;;;4997511;28;20212;-84
2023/10/25 16:51:18;;;;;;;1.10;1.00;;;20.50;65.10;19.50;94767.00;;;;4996945;28;20242;-84
2023/10/25 16:53:47;;;;;;;0.80;0.80;;;20.40;65.30;19.40;94762.00;;;;5018855;28;20197;-84
2023/10/25 16:56:16;;;;;;;0.87;0.70;;;20.30;65.20;19.40;94771.00;;;;5008158;28;20289;-84
2023/10/25 16:58:45;;;;;;;0.60;0.60;;;20.30;65.40;19.30;94791.00;;;;5012841;28;20729;-84
2023/10/25 17:01:14;;;;;;;0.97;0.90;;;20.20;65.30;19.30;94780.00;;;;5015013;28;20240;-84
2023/10/25 17:03:42;;;;;;;0.87;0.70;;;20.10;65.30;19.20;94784.00;;;;4996600;28;20214;-84
2023/10/25 17:06:11;;;;;;;0.40;0.40;;;20.00;65.60;19.10;94803.00;;;;5007681;28;20238;-84
2023/10/25 17:08:41;;;;;;;0.60;0.60;;;20.00;66.10;19.10;94802.00;;;;5025662;28;20560;-84
2023/10/25 17:11:09;;;;;;;0.50;0.50;;;19.90;66.50;19.00;94808.00;;;;4987490;28;20278;-84
2023/10/25 17:13:37;;;;;;;0.70;0.70;;;19.90;66.40;18.90;94796.00;;;;4994807;28;20652;-84
2023/10/25 17:16:06;;;;;;;0.60;0.60;;;19.80;66.40;18.90;94787.00;;;;5017538;28;20202;-84
2023/10/25 17:18:38;;;;;;;0.50;0.40;;;19.70;66.80;18.80;94779.00;;;;5021053;28;20231;-84
2023/10/25 17:21:10;;;;;;;0.40;0.40;;;19.70;67.10;18.80;94761.00;;;;5033845;28;20203;-84
2023/10/25 17:23:39;;;;;;;1.63;1.53;;;19.60;67.30;18.70;94760.00;;;;5012240;28;20202;-84
2023/10/25 17:26:06;;;;;;;1.20;1.10;;;19.60;67.70;18.70;94764.00;;;;5031364;28;20198;-84
2023/10/25 17:28:34;;;;;;;1.03;0.97;;;19.50;68.00;18.60;94786.00;;;;5016841;28;20201;-84
2023/10/25 17:31:02;;;;;;;0.80;0.80;;;19.50;68.30;18.60;94784.00;;;;5016193;28;20210;-84
2023/10/25 17:33:30;;;;;;;1.27;0.50;;;19.40;68.10;18.50;94787.00;;;;5019378;28;20289;-84
2023/10/25 17:35:59;;;;;;;0.60;0.60;;;19.40;69.00;18.50;94780.00;;;;5029628;28;20670;-84
2023/10/25 17:38:27;;;;;;;0.40;0.40;;;19.30;68.30;18.40;94773.00;;;;5019459;28;20665;-84
2023/10/25 17:40:56;;;;;;;0.70;0.70;;;19.30;68.60;18.40;94791.00;;;;5019921;28;20202;-84
2023/10/25 17:43:25;;;;;;;1.03;0.60;;;19.30;69.00;18.30;94802.00;;;;5003421;28;20205;-84
2023/10/25 17:45:53;;;;;;;0.57;0.57;;;19.20;69.00;18.30;94792.00;;;;5021819;28;20280;-84
2023/10/25 17:48:23;;;;;;;0.60;0.60;;;19.20;68.80;18.30;94760.00;;;;5033864;28;20277;-84
2023/10/25 17:50:56;;;;;;;0.50;0.50;;;19.10;68.60;18.20;94749.00;;;;5016896;28;20215;-84
2023/10/25 17:53:24;;;;;;;0.63;0.50;;;19.10;69.10;18.20;94722.00;;;;5012917;28;20284;-84
2023/10/25 17:55:52;;;;;;;0.70;0.70;;;19.00;69.20;18.10;94713.00;;;;5023974;28;20209;-84
2023/10/25 17:58:21;;;;;;;0.77;0.70;;;19.00;69.40;18.10;94701.00;;;;5014748;28;20316;-84
2023/10/25 18:00:49;;;;;;;0.80;0.77;;;19.00;69.70;18.00;94699.00;;;;4997637;28;21788;-84
2023/10/25 18:03:17;;;;;;;0.70;0.70;;;18.90;69.70;18.00;94683.00;;;;5022844;28;20205;-84
2023/10/25 18:05:45;;;;;;;1.10;0.87;;;18.90;69.70;17.90;94679.00;;;;5022493;28;20198;-84
2023/10/25 18:08:19;;;;;;;2.03;0.60;;;18.80;69.70;17.90;94683.00;;;;4999882;28;20212;-84
2023/10/25 18:10:48;;;;;;;1.03;0.60;;;18.80;69.70;17.80;94675.00;;;;5023114;28;20594;-84
2023/10/25 18:13:17;;;;;;;0.50;0.50;;;18.70;69.70;17.70;94695.00;;;;5031100;28;20252;-84
2023/10/25 18:15:45;;;;;;;0.40;0.40;;;18.70;69.70;17.70;94709.00;;;;5022645;28;20228;-84
2023/10/25 18:18:12;;;;;;;1.83;0.60;;;18.60;70.00;17.60;94729.00;;;;5018685;28;20209;-84
2023/10/25 18:20:40;;;;;;;1.90;1.17;;;18.60;70.20;17.60;94731.00;;;;5024653;28;20227;-84
2023/10/25 18:23:08;;;;;;;1.70;1.60;;;18.50;70.30;17.60;94737.00;;;;4997587;28;20204;-84
2023/10/25 18:25:35;;;;;;;2.43;2.23;;;18.50;70.50;17.50;94726.00;;;;4986803;28;20225;-82
2023/10/25 18:28:03;;;;;;;4.13;3.60;;;18.50;70.60;17.50;94690.00;;;;5002310;28;20257;-84
2023/10/25 18:30:31;;;;;;;4.33;3.83;;;18.40;70.60;17.50;94684.00;;;;5003300;28;20225;-84
2023/10/25 18:33:00;;;;;;;4.17;3.50;;;18.40;70.80;17.50;94670.00;;;;5008055;28;20205;-83
2023/10/25 18:35:28;;;;;;;3.20;2.90;;;18.40;71.00;17.40;94684.00;;;;5030270;28;20288;-84
2023/10/25 18:37:57;;;;;;;2.10;1.73;;;18.40;71.00;17.40;94681.00;;;;5035324;28;20189;-84
2023/10/25 18:40:24;;;;;;;1.33;1.23;;;18.30;70.70;17.40;94690.00;;;;5037062;28;20225;-84
2023/10/25 18:42:53;;;;;;;1.97;1.30;;;18.30;70.70;17.30;94671.00;;;;5019200;28;20214;-85
2023/10/25 18:45:21;;;;;;;1.23;0.90;;;18.30;70.90;17.30;94695.00;;;;5013983;28;20670;-84
2023/10/25 18:47:49;;;;;;;1.17;1.03;;;18.20;71.00;17.30;94700.00;;;;5020865;28;20213;-84
2023/10/25 18:50:17;;;;;;;1.00;0.80;;;18.20;71.20;17.30;94712.00;;;;5030207;28;20300;-83
2023/10/25 18:52:45;;;;;;;1.10;1.00;;;18.10;71.40;17.20;94710.00;;;;5036099;28;20284;-84
2023/10/25 18:55:13;;;;;;;1.60;1.50;;;18.10;71.30;17.20;94671.00;;;;5011328;28;20763;-84
2023/10/25 18:57:40;;;;;;;1.20;1.10;;;18.10;71.30;17.20;94668.00;;;;5007153;28;20210;-84
2023/10/25 19:00:09;;;;;;;1.00;0.90;;;18.10;71.40;17.20;94669.00;;;;5017701;28;20651;-84
2023/10/25 19:02:37;;;;;;;1.03;0.87;;;18.10;71.60;17.10;94693.00;;;;5005675;28;20198;-83
2023/10/25 19:05:06;;;;;;;1.07;0.90;;;18.00;71.50;17.10;94689.00;;;;5016901;28;20201;-84
2023/10/25 19:07:35;;;;;;;1.90;1.70;;;18.00;71.60;17.10;94698.00;;;;5004475;28;20210;-84
2023/10/25 19:10:02;;;;;;;1.63;1.43;;;18.00;71.70;17.00;94713.00;;;;5027383;28;20322;-84
2023/10/25 19:12:30;;;;;;;1.50;1.40;;;18.00;71.70;17.00;94684.00;;;;5004609;28;20206;-84
2023/10/25 19:14:57;;;;;;;1.87;1.60;;;17.90;71.70;17.00;94683.00;;;;4999059;28;20195;-83
2023/10/25 19:17:25;;;;;;;3.23;1.83;;;17.90;71.50;17.00;94695.00;;;;5019708;28;20202;-84
2023/10/25 19:19:52;;;;;;;1.90;1.80;;;17.90;71.60;16.90;94698.00;;;;5022392;28;20732;-84
2023/10/25 19:22:19;;;;;;;1.90;1.80;;;17.80;72.00;16.90;94684.00;;;;5021068;28;20761;-84
2023/10/25 19:24:48;;;;;;;3.33;2.77;;;17.80;72.40;16.90;94677.00;;;;5026570;28;20571;-84
2023/10/25 19:27:17;;;;;;;4.00;3.40;;;17.80;73.30;16.90;94658.00;;;;5008262;28;20197;-83
2023/10/25 19:29:45;;;;;;;2.00;1.90;;;17.80;72.40;16.80;94653.00;;;;4982155;28;20285;-84
2023/10/25 19:32:13;;;;;;;2.07;1.83;;;17.70;72.30;16.80;94654.00;;;;5031044;28;20197;-83
2023/10/25 19:34:40;;;;;;;2.00;1.50;;;17.70;72.40;16.80;94662.00;;;;5012871;28;20202;-83
2023/10/25 19:37:06;;;;;;;2.33;1.10;;;17.70;72.50;16.70;94666.00;;;;5026445;28;20677;-83
2023/10/25 19:39:33;;;;;;;0.87;0.87;;;17.60;72.60;16.70;94668.00;;;;5034754;28;20283;-84
2023/10/25 19:42:02;;;;;;;1.10;1.00;;;17.60;72.70;16.70;94685.00;;;;5007363;28;20232;-84
2023/10/25 19:44:30;;;;;;;1.30;1.00;;;17.60;73.00;16.70;94675.00;;;;5021474;28;20201;-83
2023/10/25 19:46:57;;;;;;;2.00;1.80;;;17.60;73.00;16.70;94688.00;;;;5016103;28;20213;-85
2023/10/25 19:49:24;;;;;;;2.30;1.60;;;17.60;73.00;16.60;94684.00;;;;5017483;28;20221;-84
2023/10/25 19:51:52;;;;;;;2.63;1.83;;;17.50;73.10;16.60;94709.00;;;;5019935;28;20222;-84
2023/10/25 19:54:19;;;;;;;2.70;1.90;;;17.50;73.10;16.60;94710.00;;;;5015276;28;20213;-85
2023/10/25 19:56:46;;;;;;;2.10;1.80;;;17.50;73.20;16.60;94728.00;;;;5031805;28;20636;-85
2023/10/25 19:59:15;;;;;;;1.73;1.63;;;17.60;73.40;16.60;94716.00;;;;5002242;28;20225;-85
2023/10/25 20:01:42;;;;;;;1.50;1.40;;;17.50;73.40;16.60;94711.00;;;;4998624;28;20301;-85
2023/10/25 20:04:10;;;;;;;1.60;1.40;;;17.50;73.30;16.60;94702.00;;;;5028150;28;20750;-85
2023/10/25 20:06:37;;;;;;;1.30;1.20;;;17.60;73.40;16.60;94704.00;;;;5019337;28;20209;-85
2023/10/25 20:09:04;;;;;;;0.93;0.93;;;17.50;73.10;16.60;94700.00;;;;5015784;28;20260;-84
2023/10/25 20:11:32;;;;;;;0.83;0.80;;;17.50;72.90;16.60;94705.00;;;;5018771;28;20208;-85
2023/10/25 20:14:00;;;;;;;1.23;1.07;;;17.50;73.10;16.60;94723.00;;;;5029279;28;20210;-84
2023/10/25 20:16:29;;;;;;;1.50;1.40;;;17.50;73.40;16.60;94752.00;;;;5013624;28;20201;-83
2023/10/25 20:18:56;;;;;;;1.23;1.17;;;17.50;73.60;16.60;94763.00;;;;5011547;28;20226;-83
2023/10/25 20:21:24;;;;;;;3.33;1.03;;;17.50;73.60;16.60;94781.00;;;;5026985;28;20285;-85
2023/10/25 20:23:52;;;;;;;0.83;0.83;;;17.50;73.50;16.60;94815.00;;;;5013694;28;20688;-85
2023/10/25 20:26:19;;;;;;;0.77;0.77;;;17.50;73.40;16.60;94805.00;;;;5031085;28;20213;-85
2023/10/25 20:28:47;;;;;;;1.60;0.90;;;17.50;73.20;16.60;94807.00;;;;4998896;28;20281;-84
2023/10/25 20:31:14;;;;;;;1.10;0.70;;;17.50;73.10;16.60;94792.00;;;;5002431;28;20228;-84
2023/10/25 20:33:43;;;;;;;0.60;0.60;;;17.50;73.30;16.60;94790.00;;;;5004165;28;20662;-85
2023/10/25 20:36:11;;;;;;;0.50;0.50;;;17.50;73.40;16.60;94799.00;;;;5014369;28;20210;-85
2023/10/25 20:38:38;;;;;;;0.60;0.50;;;17.40;73.20;16.60;94805.00;;;;5014553;28;20214;-85
2023/10/25 20:41:06;;;;;;;0.37;0.37;;;17.40;73.00;16.60;94800.00;;;;5013875;28;20241;-84
2023/10/25 20:43:33;;;;;;;1.20;0.40;;;17.40;72.70;16.60;94805.00;;;;5031973;28;20220;-84
2023/10/25 20:46:01;;;;;;;0.40;0.40;;;17.40;72.60;16.60;94788.00;;;;5027084;28;20288;-85
2023/10/25 20:48:31;;;;;;;0.47;0.30;;;17.40;72.60;16.50;94773.00;;;;5034505;28;20213;-83
2023/10/25 20:51:02;;;;;;;0.40;0.30;;;17.40;72.60;16.50;94773.00;;;;5025994;28;20198;-81
2023/10/25 20:53:30;;;;;;;0.30;0.30;;;17.40;72.30;16.50;94769.00;;;;5016025;28;20206;-85
2023/10/25 20:55:59;;;;;;;0.90;0.47;;;17.30;72.00;16.40;94763.00;;;;5015116;28;20670;-83
2023/10/25 20:58:27;;;;;;;0.20;0.20;;;17.30;72.00;16.40;94765.00;;;;5003156;28;20297;-84
2023/10/25 21:00:54;;;;;;;0.10;0.10;;;17.20;72.10;16.40;94760.00;;;;5002699;28;20234;-84
2023/10/25 21:03:21;;;;;;;0.43;0.20;;;17.20;72.50;16.30;94762.00;;;;5013589;28;20209;-85
2023/10/25 21:05:54;;;;;;;0.30;0.20;;;17.20;72.50;16.30;94775.00;;;;4994498;28;20721;-84
2023/10/25 21:08:24;;;;;;;0.10;0.10;;;17.20;72.20;16.20;94762.00;;;;5007336;28;20264;-85
2023/10/25 21:10:52;;;;;;;0.43;0.00;;;17.20;72.00;16.20;94757.00;;;;4980096;28;20226;-85
2023/10/25 21:13:20;;;;;;;0.10;0.10;;;17.10;72.00;16.20;94758.00;;;;5013819;28;20253;-85
2023/10/25 21:15:48;;;;;;;0.20;0.00;;;17.10;72.10;16.20;94752.00;;;;4993314;28;20705;-84
2023/10/25 21:18:16;;;;;;;0.20;0.20;;;17.00;72.10;16.10;94759.00;;;;5004287;28;20245;-85
2023/10/25 21:20:46;;;;;;;0.17;0.17;;;17.00;72.60;16.10;94745.00;;;;5013676;28;20222;-85
2023/10/25 21:23:14;;;;;;;0.20;0.20;;;17.00;71.80;16.10;94766.00;;;;5013866;28;20621;-85
2023/10/25 21:25:43;;;;;;;0.40;0.10;;;17.00;71.80;16.10;94772.00;;;;4980835;28;20678;-85
2023/10/25 21:28:12;;;;;;;0.30;0.20;;;17.00;72.00;16.10;94755.00;;;;5019330;28;20617;-86
2023/10/25 21:30:41;;;;;;;0.30;0.20;;;17.00;72.00;16.10;94774.00;;;;4995975;28;20820;-84
2023/10/25 21:33:08;;;;;;;0.20;0.20;;;17.00;72.30;16.10;94783.00;;;;5032807;28;20223;-85
2023/10/25 21:35:37;;;;;;;0.10;0.10;;;17.00;72.50;16.10;94775.00;;;;5024901;28;20288;-85
2023/10/25 21:38:04;;;;;;;0.20;0.13;;;17.00;72.30;16.10;94773.00;;;;5015415;28;20202;-85
2023/10/25 21:40:31;;;;;;;0.53;0.20;;;17.00;72.30;16.10;94764.00;;;;5020271;28;20321;-83
2023/10/25 21:43:00;;;;;;;0.50;0.20;;;17.00;72.30;16.20;94764.00;;;;4998343;28;20558;-83
2023/10/25 21:45:27;;;;;;;0.20;0.20;;;17.00;72.30;16.20;94770.00;;;;5015375;28;20202;-84
2023/10/25 21:47:55;;;;;;;0.53;0.30;;;17.00;72.50;16.20;94769.00;;;;5017728;28;20214;-84
2023/10/25 21:50:22;;;;;;;0.30;0.20;;;17.00;72.60;16.20;94778.00;;;;5020081;28;20229;-84
2023/10/25 21:52:50;;;;;;;0.20;0.20;;;17.00;72.60;16.20;94767.00;;;;4997170;28;20301;-85
2023/10/25 21:55:17;;;;;;;0.50;0.37;;;17.00;72.60;16.20;94769.00;;;;5014251;28;20255;-85
2023/10/25 21:57:45;;;;;;;2.20;0.40;;;17.00;72.70;16.20;94761.00;;;;5020555;28;20212;-85
2023/10/25 22:00:20;;;;;;;0.10;0.10;;;17.00;72.80;16.20;94764.00;;;;5014419;28;20273;-84
2023/10/25 22:02:48;;;;;;;0.20;0.20;;;17.10;72.70;16.20;94769.00;;;;5029563;28;20631;-84
2023/10/25 22:05:15;;;;;;;0.00;0.00;;;17.10;72.60;16.30;94773.00;;;;5022665;28;20228;-85
2023/10/25 22:07:42;;;;;;;0.60;0.07;;;17.10;72.40;16.30;94778.00;;;;5017225;28;20581;-85
2023/10/25 22:10:10;;;;;;;0.77;0.10;;;17.10;72.30;16.30;94779.00;;;;5019690;28;20225;-85
2023/10/25 22:12:37;;;;;;;0.77;0.30;;;17.10;72.20;16.30;94775.00;;;;5020379;28;20233;-84
2023/10/25 22:15:06;;;;;;;0.20;0.10;;;17.10;72.10;16.30;94772.00;;;;5018783;28;20202;-84
2023/10/25 22:17:35;;;;;;;0.10;0.10;;;17.10;72.20;16.30;94768.00;;;;5020185;28;20749;-83
2023/10/25 22:20:02;;;;;;;0.50;0.30;;;17.10;72.00;16.30;94765.00;;;;5021129;28;20236;-83
2023/10/25 22:22:30;;;;;;;0.20;0.20;;;17.20;71.70;16.30;94766.00;;;;5009272;28;20205;-85
2023/10/25 22:24:57;;;;;;;0.20;0.10;;;17.20;71.30;16.40;94770.00;;;;5012616;28;20300;-83
2023/10/25 22:27:24;;;;;;;0.20;0.20;;;17.20;71.20;16.30;94775.00;;;;5038045;28;20205;-83
2023/10/25 22:29:51;;;;;;;0.20;0.20;;;17.20;71.10;16.30;94789.00;;;;5030162;28;20222;-84
2023/10/25 22:32:18;;;;;;;0.30;0.17;;;17.20;71.10;16.30;94783.00;;;;5003608;28;20212;-84
2023/10/25 22:34:47;;;;;;;0.30;0.10;;;17.20;70.70;16.30;94786.00;;;;5032877;28;20268;-84
2023/10/25 22:37:15;;;;;;;0.20;0.20;;;17.20;71.10;16.30;94776.00;;;;5026889;28;20285;-84
2023/10/25 22:39:42;;;;;;;0.37;0.20;;;17.20;70.20;16.30;94788.00;;;;5001343;28;20253;-85
2023/10/25 22:42:10;;;;;;;0.20;0.10;;;17.20;70.10;16.30;94795.00;;;;5012659;28;20198;-84
2023/10/25 22:44:37;;;;;;;0.20;0.20;;;17.20;69.90;16.30;94792.00;;;;5034036;28;20194;-84
2023/10/25 22:47:05;;;;;;;0.40;0.27;;;17.20;69.40;16.30;94784.00;;;;5034871;28;20698;-84
2023/10/25 22:49:32;;;;;;;0.20;0.17;;;17.20;69.20;16.30;94794.00;;;;5021720;28;20316;-84
2023/10/25 22:52:01;;;;;;;0.20;0.10;;;17.20;69.00;16.30;94779.00;;;;5015735;28;20198;-84
2023/10/25 22:54:28;;;;;;;0.47;0.40;;;17.20;68.90;16.30;94792.00;;;;5018393;28;20207;-83
2023/10/25 22:56:55;;;;;;;0.10;0.10;;;17.10;68.50;16.30;94794.00;;;;5035919;28;20277;-84
2023/10/25 22:59:23;;;;;;;0.20;0.10;;;17.10;68.50;16.30;94794.00;;;;5023748;28;20240;-83
2023/10/25 23:01:50;;;;;;;1.13;0.10;;;17.10;68.60;16.20;94795.00;;;;5034624;28;20198;-83
2023/10/25 23:04:17;;;;;;;0.43;0.40;;;17.10;68.50;16.20;94791.00;;;;5009721;28;20210;-83
2023/10/25 23:06:45;;;;;;;0.20;0.10;;;17.10;68.20;16.20;94795.00;;;;5002746;28;20208;-83
2023/10/25 23:09:13;;;;;;;0.17;0.10;;;17.10;68.40;16.20;94803.00;;;;5004406;28;20225;-83
2023/10/25 23:11:40;;;;;;;0.87;0.30;;;17.10;68.40;16.20;94802.00;;;;5029052;28;20202;-83
2023/10/25 23:14:08;;;;;;;0.30;0.20;;;17.10;68.20;16.20;94809.00;;;;5037623;28;20239;-84
2023/10/25 23:16:35;;;;;;;0.53;0.10;;;17.10;68.30;16.20;94810.00;;;;5022930;28;20281;-82
2023/10/25 23:19:02;;;;;;;0.10;0.00;;;17.10;68.30;16.10;94806.00;;;;5015803;28;20228;-84
2023/10/25 23:21:30;;;;;;;0.40;0.20;;;17.00;67.90;16.10;94811.00;;;;5027375;28;20825;-84
2023/10/25 23:23:57;;;;;;;0.20;0.20;;;17.00;67.80;16.10;94803.00;;;;5028987;28;20773;-84
2023/10/25 23:26:26;;;;;;;0.10;0.10;;;17.00;68.00;16.00;94801.00;;;;5036828;28;20260;-83
2023/10/25 23:28:53;;;;;;;0.20;0.20;;;16.90;67.90;16.00;94800.00;;;;5036535;28;20277;-83
2023/10/25 23:31:20;;;;;;;0.10;0.10;;;16.90;67.90;16.00;94799.00;;;;5029497;28;20282;-83
2023/10/25 23:33:48;;;;;;;0.77;0.20;;;16.90;68.00;16.00;94793.00;;;;5021690;28;20212;-84
2023/10/25 23:36:16;;;;;;;0.30;0.30;;;16.90;68.20;16.00;94792.00;;;;5026103;28;20229;-83
2023/10/25 23:38:43;;;;;;;0.10;0.10;;;16.90;68.10;16.00;94794.00;;;;5011702;28;20221;-84
2023/10/25 23:41:10;;;;;;;0.27;0.20;;;16.90;68.10;15.90;94793.00;;;;5020079;28;20313;-84
2023/10/25 23:43:39;;;;;;;0.10;0.10;;;16.80;68.00;15.90;94796.00;;;;5020663;28;20722;-83
2023/10/25 23:46:06;;;;;;;0.67;0.10;;;16.80;67.90;15.90;94796.00;;;;5020726;28;20248;-84
2023/10/25 23:48:34;;;;;;;0.43;0.20;;;16.80;68.00;15.90;94788.00;;;;5010151;28;20547;-83
2023/10/25 23:51:01;;;;;;;0.10;0.10;;;16.80;68.20;15.80;94780.00;;;;5028853;28;20856;-83
2023/10/25 23:53:28;;;;;;;1.43;0.20;;;16.70;68.10;15.80;94780.00;;;;5033352;28;20288;-83
2023/10/25 23:55:56;;;;;;;0.20;0.20;;;16.70;68.10;15.80;94789.00;;;;5030963;28;20202;-83
2023/10/25 23:58:23;;;;;;;0.33;0.20;;;16.70;68.10;15.80;94780.00;;;;5006839;28;20315;-83
